Eldena, Illinois
Current Conditions -  °F | °C
As of 10:55 AM on Tuesday 27 Jan 2015 (Local Time) from KSQI Reporting Station
Overcast Overcast  
Wind Chill: 22°   Ceiling: 1300
Heat Index: 28°   Visibility: 9mi
Dew Point: 23°   Wind: 6mph
Humidity: 80%   Direction: 30°NNE
Pressure: 30.19"   Gusts: NA
Location:  41.77°N, 89.41°W
Report Text: KSQI 271655Z AUTO 03005KT 9SM OVC013 M02/M05 A3019 RMK AO1
Loading
Personal Weather Stations






























Interactive Weather Map New forecast layout! Learn more

10-Day Weather Forecast

Advertisements
Track Severe Weather on mobile